Time;durP1;ratioP1;P1;durP2;ratioP2;P2;SDS_P1;SDS_P2;PMS_P1;PMS_P2;Temp;Humidity;BMP_temperature;BMP_pressure;BME280_temperature;BME280_humidity;BME280_pressure;Samples;Min_cycle;Max_cycle;Signal;HPM_P1;HPM_P2
2022/11/22 00:02:55;;;;;;;203.40;72.13;;;;;;;;;;6198045;28;20090;-71
2022/11/22 00:05:55;;;;;;;264.07;89.63;;;;;;;;;;6198057;28;20442;-71
2022/11/22 00:08:55;;;;;;;293.00;99.63;;;;;;;;;;6198355;28;20018;-72
2022/11/22 00:11:55;;;;;;;282.65;93.80;;;;;;;;;;6180410;28;20015;-71
2022/11/22 00:14:56;;;;;;;308.80;99.80;;;;;;;;;;6198819;28;20053;-71
2022/11/22 00:17:56;;;;;;;301.30;104.23;;;;;;;;;;6197428;28;20019;-71
2022/11/22 00:20:56;;;;;;;331.33;117.28;;;;;;;;;;6196226;28;20014;-71
2022/11/22 00:23:56;;;;;;;368.88;119.05;;;;;;;;;;6198470;28;20493;-71
2022/11/22 00:26:56;;;;;;;360.00;117.37;;;;;;;;;;6196909;28;20023;-72
2022/11/22 00:29:56;;;;;;;329.67;113.23;;;;;;;;;;6197295;28;20104;-71
2022/11/22 00:32:57;;;;;;;314.17;107.60;;;;;;;;;;6197876;28;20381;-71
2022/11/22 00:35:57;;;;;;;296.38;101.45;;;;;;;;;;6196974;28;20018;-72
2022/11/22 00:38:57;;;;;;;272.42;87.53;;;;;;;;;;6197251;28;20065;-71
2022/11/22 00:41:57;;;;;;;235.50;78.60;;;;;;;;;;6199001;28;20026;-73
2022/11/22 00:44:57;;;;;;;258.80;84.23;;;;;;;;;;6198096;28;20046;-71
2022/11/22 00:47:58;;;;;;;201.65;68.95;;;;;;;;;;6196829;28;20368;-71
2022/11/22 00:50:58;;;;;;;147.15;57.05;;;;;;;;;;6197720;28;20065;-72
2022/11/22 00:53:58;;;;;;;190.27;70.27;;;;;;;;;;6195973;28;20015;-72
2022/11/22 00:56:58;;;;;;;265.92;92.18;;;;;;;;;;6196398;28;20443;-72
2022/11/22 00:59:59;;;;;;;314.03;119.83;;;;;;;;;;6197068;28;20026;-72
2022/11/22 01:02:59;;;;;;;307.73;117.65;;;;;;;;;;6196403;28;20100;-72
2022/11/22 01:05:59;;;;;;;335.20;127.90;;;;;;;;;;6197092;28;20364;-73
2022/11/22 01:08:59;;;;;;;341.73;122.57;;;;;;;;;;6196394;28;20384;-73
2022/11/22 01:11:59;;;;;;;218.93;93.32;;;;;;;;;;6197146;28;20045;-72
2022/11/22 01:14:59;;;;;;;328.93;119.40;;;;;;;;;;6179325;28;20018;-72
2022/11/22 01:18:00;;;;;;;329.60;119.03;;;;;;;;;;6195949;28;20383;-72
2022/11/22 01:21:00;;;;;;;290.98;110.00;;;;;;;;;;6197032;28;20554;-72
2022/11/22 01:24:00;;;;;;;264.53;98.67;;;;;;;;;;6196220;28;20025;-72
2022/11/22 01:27:00;;;;;;;328.90;110.13;;;;;;;;;;6196065;28;20015;-73
2022/11/22 01:30:01;;;;;;;359.27;113.72;;;;;;;;;;6179019;28;20026;-73
2022/11/22 01:33:01;;;;;;;389.80;123.97;;;;;;;;;;6179966;28;20049;-72
2022/11/22 01:36:01;;;;;;;393.83;121.85;;;;;;;;;;6196581;28;20094;-73
2022/11/22 01:39:01;;;;;;;408.73;121.90;;;;;;;;;;6196027;28;20045;-73
2022/11/22 01:42:01;;;;;;;405.20;118.03;;;;;;;;;;6196154;28;20379;-72
2022/11/22 01:45:20;;;;;;;403.00;119.00;;;;;;;;;;6195507;28;20370;-72
2022/11/22 01:48:21;;;;;;;363.45;107.68;;;;;;;;;;6195882;28;20076;-72
2022/11/22 01:51:28;;;;;;;351.23;99.50;;;;;;;;;;6195987;28;20022;-73
2022/11/22 01:54:31;;;;;;;282.13;85.22;;;;;;;;;;6195809;28;20010;-73
2022/11/22 01:57:32;;;;;;;224.20;66.03;;;;;;;;;;6196189;28;20552;-73
2022/11/22 02:00:33;;;;;;;216.05;63.28;;;;;;;;;;6195664;28;20049;-73
2022/11/22 02:03:36;;;;;;;205.47;64.97;;;;;;;;;;6197190;28;20029;-74
2022/11/22 02:06:56;;;;;;;167.90;56.60;;;;;;;;;;6194865;28;20499;-74
2022/11/22 02:09:57;;;;;;;172.18;53.45;;;;;;;;;;6168253;28;20042;-73
2022/11/22 02:12:58;;;;;;;128.10;51.50;;;;;;;;;;6200101;28;20030;-74
2022/11/22 02:15:58;;;;;;;136.77;48.88;;;;;;;;;;6201330;28;20104;-73
2022/11/22 02:18:59;;;;;;;100.53;40.80;;;;;;;;;;6200591;28;20018;-74
2022/11/22 02:22:04;;;;;;;153.03;51.93;;;;;;;;;;6183864;28;20046;-74
2022/11/22 02:25:04;;;;;;;145.02;57.80;;;;;;;;;;6200938;28;20061;-74
2022/11/22 02:28:05;;;;;;;154.68;59.25;;;;;;;;;;6200838;28;20410;-74
2022/11/22 02:31:05;;;;;;;197.70;60.23;;;;;;;;;;6201083;28;20723;-74
2022/11/22 02:34:05;;;;;;;150.43;55.33;;;;;;;;;;6199386;28;20382;-74
2022/11/22 02:37:06;;;;;;;159.27;52.07;;;;;;;;;;6199618;28;20011;-74
2022/11/22 02:40:07;;;;;;;156.07;52.70;;;;;;;;;;6183283;28;20068;-74
2022/11/22 02:43:10;;;;;;;143.35;47.17;;;;;;;;;;6201803;28;20077;-74
2022/11/22 02:46:11;;;;;;;162.23;53.22;;;;;;;;;;6202585;28;20022;-74
2022/11/22 02:49:11;;;;;;;136.95;56.63;;;;;;;;;;6203491;28;20041;-74
2022/11/22 02:52:16;;;;;;;122.47;52.17;;;;;;;;;;6202363;28;20022;-73
2022/11/22 02:55:16;;;;;;;116.85;52.47;;;;;;;;;;6183839;28;20105;-73
2022/11/22 02:58:16;;;;;;;77.68;32.63;;;;;;;;;;6184425;28;20013;-74
2022/11/22 03:01:16;;;;;;;99.87;45.23;;;;;;;;;;6201981;28;20533;-74
2022/11/22 03:04:25;;;;;;;107.20;44.20;;;;;;;;;;6203374;28;20042;-74
2022/11/22 03:07:26;;;;;;;103.55;48.33;;;;;;;;;;6182978;28;20568;-75
2022/11/22 03:10:26;;;;;;;105.50;47.47;;;;;;;;;;6201799;28;20026;-74
2022/11/22 03:13:26;;;;;;;101.88;47.53;;;;;;;;;;6201167;28;20010;-74
2022/11/22 03:16:26;;;;;;;111.07;44.60;;;;;;;;;;6200486;28;20019;-74
2022/11/22 03:19:26;;;;;;;110.87;48.73;;;;;;;;;;6199208;28;20027;-74
2022/11/22 03:22:27;;;;;;;110.13;49.30;;;;;;;;;;6200957;28;20079;-76
2022/11/22 03:25:27;;;;;;;106.82;49.70;;;;;;;;;;6196819;28;20015;-76
2022/11/22 03:28:27;;;;;;;103.17;49.23;;;;;;;;;;6200670;28;20108;-76
2022/11/22 03:31:27;;;;;;;89.23;38.63;;;;;;;;;;6201762;28;20101;-76
2022/11/22 03:34:28;;;;;;;110.03;55.23;;;;;;;;;;6199878;28;20015;-76
2022/11/22 03:37:28;;;;;;;124.13;56.65;;;;;;;;;;6182874;28;20022;-76
2022/11/22 03:40:28;;;;;;;135.20;58.37;;;;;;;;;;6182503;28;20302;-77
2022/11/22 03:43:28;;;;;;;106.23;54.80;;;;;;;;;;6202623;28;20019;-76
2022/11/22 03:46:29;;;;;;;126.55;59.65;;;;;;;;;;6184319;28;20018;-76
2022/11/22 03:49:29;;;;;;;134.23;62.93;;;;;;;;;;6200892;28;20149;-77
2022/11/22 03:52:29;;;;;;;114.13;56.53;;;;;;;;;;6201621;28;20025;-77
2022/11/22 03:55:29;;;;;;;130.40;60.53;;;;;;;;;;6201324;28;20018;-76
2022/11/22 03:58:30;;;;;;;108.90;53.07;;;;;;;;;;6198669;28;20014;-76
2022/11/22 04:01:30;;;;;;;129.37;62.03;;;;;;;;;;6199379;28;20608;-76
2022/11/22 04:04:30;;;;;;;129.53;60.07;;;;;;;;;;6199892;28;20033;-77
2022/11/22 04:07:30;;;;;;;119.18;59.50;;;;;;;;;;6199471;28;20077;-76
2022/11/22 04:10:30;;;;;;;129.37;62.43;;;;;;;;;;6199186;28;20285;-76
2022/11/22 04:16:50;;;;;;;103.80;49.00;;;;;;;;;;6201872;28;20529;-76
2022/11/22 04:23:10;;;;;;;87.18;45.47;;;;;;;;;;6198921;28;20019;-76
2022/11/22 04:26:10;;;;;;;118.25;54.50;;;;;;;;;;6199442;28;20437;-76
2022/11/22 04:29:10;;;;;;;102.72;50.50;;;;;;;;;;6197480;28;20026;-75
2022/11/22 04:35:30;;;;;;;96.13;45.03;;;;;;;;;;6193553;28;20237;-75
2022/11/22 04:38:30;;;;;;;117.73;51.63;;;;;;;;;;6198683;28;20138;-76
2022/11/22 04:41:30;;;;;;;93.80;44.83;;;;;;;;;;6182797;28;20018;-77
2022/11/22 04:44:39;;;;;;;95.43;45.47;;;;;;;;;;6198846;28;20030;-76
2022/11/22 04:47:58;;;;;;;100.07;46.53;;;;;;;;;;6198488;28;20018;-77
2022/11/22 04:54:16;;;;;;;84.82;40.97;;;;;;;;;;6198852;28;20030;-77
2022/11/22 04:57:17;;;;;;;78.27;40.67;;;;;;;;;;6198602;28;20074;-77
2022/11/22 05:00:17;;;;;;;83.70;35.53;;;;;;;;;;6180634;28;20030;-78
2022/11/22 05:03:17;;;;;;;67.23;33.57;;;;;;;;;;6198591;28;20072;-78
2022/11/22 05:06:17;;;;;;;63.90;29.67;;;;;;;;;;6181063;28;20054;-79
2022/11/22 05:09:18;;;;;;;61.83;30.03;;;;;;;;;;6179353;28;20058;-78
2022/11/22 05:12:18;;;;;;;69.50;31.67;;;;;;;;;;6201910;28;20021;-78
2022/11/22 05:15:18;;;;;;;53.70;29.27;;;;;;;;;;6183637;28;20049;-79
2022/11/22 05:18:19;;;;;;;48.27;24.17;;;;;;;;;;6183912;28;20022;-79
2022/11/22 05:21:19;;;;;;;62.70;29.27;;;;;;;;;;6183668;28;20037;-79
2022/11/22 05:24:19;;;;;;;54.38;26.75;;;;;;;;;;6201165;28;20033;-80
2022/11/22 05:27:19;;;;;;;44.17;24.08;;;;;;;;;;6182330;28;20089;-81
2022/11/22 05:30:20;;;;;;;53.80;25.50;;;;;;;;;;6182461;28;20022;-81
2022/11/22 05:33:20;;;;;;;52.23;25.27;;;;;;;;;;6200534;28;20187;-81
2022/11/22 05:36:20;;;;;;;45.30;23.67;;;;;;;;;;6183491;28;20521;-80
2022/11/22 05:39:20;;;;;;;48.17;22.87;;;;;;;;;;6199581;28;20113;-81
2022/11/22 05:42:21;;;;;;;45.42;22.48;;;;;;;;;;6199880;28;20104;-81
2022/11/22 05:45:22;;;;;;;47.53;22.10;;;;;;;;;;6182495;28;20077;-81
2022/11/22 05:48:22;;;;;;;45.25;21.00;;;;;;;;;;6182094;28;20076;-81
2022/11/22 05:51:24;;;;;;;41.00;21.77;;;;;;;;;;6197752;28;20022;-81
2022/11/22 05:54:24;;;;;;;45.47;21.25;;;;;;;;;;6199834;28;20049;-82
2022/11/22 05:57:24;;;;;;;47.20;23.77;;;;;;;;;;6197266;28;20026;-82
2022/11/22 06:00:25;;;;;;;38.57;20.53;;;;;;;;;;6197897;28;20019;-81
2022/11/22 06:03:25;;;;;;;45.13;21.13;;;;;;;;;;6186306;28;20046;-81
2022/11/22 06:06:25;;;;;;;45.60;22.00;;;;;;;;;;6200614;28;20031;-82
2022/11/22 06:09:25;;;;;;;43.93;22.03;;;;;;;;;;6182242;28;20049;-83
2022/11/22 06:12:26;;;;;;;44.22;25.58;;;;;;;;;;6200596;28;20022;-82
2022/11/22 06:15:26;;;;;;;42.10;22.53;;;;;;;;;;6200832;28;20035;-82
2022/11/22 06:18:26;;;;;;;47.17;23.77;;;;;;;;;;6198944;28;20069;-82
2022/11/22 06:21:27;;;;;;;36.93;21.73;;;;;;;;;;6184276;28;20029;-83
2022/11/22 06:24:27;;;;;;;37.13;21.20;;;;;;;;;;6201401;28;20030;-83
2022/11/22 06:27:27;;;;;;;44.80;23.83;;;;;;;;;;6199414;28;20018;-83
2022/11/22 06:30:28;;;;;;;47.33;25.17;;;;;;;;;;6201231;28;20105;-82
2022/11/22 06:33:28;;;;;;;40.40;24.03;;;;;;;;;;6183613;28;20015;-81
2022/11/22 06:36:30;;;;;;;41.40;22.43;;;;;;;;;;6199108;28;20023;-81
2022/11/22 06:39:30;;;;;;;41.28;19.25;;;;;;;;;;6200151;28;20089;-80
2022/11/22 06:42:30;;;;;;;35.03;23.83;;;;;;;;;;6198658;28;20034;-80
2022/11/22 06:45:31;;;;;;;38.10;21.93;;;;;;;;;;6179867;28;20030;-80
2022/11/22 06:48:32;;;;;;;42.80;22.70;;;;;;;;;;6200403;28;20399;-81
2022/11/22 06:51:32;;;;;;;37.08;22.17;;;;;;;;;;6184600;28;20603;-80
2022/11/22 06:54:32;;;;;;;32.95;20.50;;;;;;;;;;6202503;28;20022;-80
2022/11/22 06:57:32;;;;;;;31.75;19.80;;;;;;;;;;6188364;28;20033;-79
2022/11/22 07:00:34;;;;;;;31.70;19.50;;;;;;;;;;6211227;28;20037;-79
2022/11/22 07:03:34;;;;;;;30.08;19.85;;;;;;;;;;6197234;28;20030;-80
2022/11/22 07:06:37;;;;;;;27.70;17.87;;;;;;;;;;6208318;28;20065;-82
2022/11/22 07:09:37;;;;;;;35.72;24.02;;;;;;;;;;6184780;28;20033;-82
2022/11/22 07:12:37;;;;;;;38.20;23.77;;;;;;;;;;6183845;28;20018;-83
2022/11/22 07:15:38;;;;;;;41.63;28.13;;;;;;;;;;6203644;28;20357;-83
2022/11/22 07:18:38;;;;;;;46.53;31.27;;;;;;;;;;6188139;28;20036;-83
2022/11/22 07:21:38;;;;;;;39.67;26.03;;;;;;;;;;6185512;28;20033;-82
2022/11/22 07:24:39;;;;;;;37.30;22.90;;;;;;;;;;6185663;28;20034;-81
2022/11/22 07:27:39;;;;;;;38.35;23.42;;;;;;;;;;6203048;28;20046;-79
2022/11/22 07:30:39;;;;;;;34.53;21.93;;;;;;;;;;6201057;28;20033;-78
2022/11/22 07:33:40;;;;;;;35.63;21.83;;;;;;;;;;6202378;28;20015;-78
2022/11/22 07:36:42;;;;;;;31.95;19.42;;;;;;;;;;6202406;28;20014;-77
2022/11/22 07:39:42;;;;;;;28.30;18.33;;;;;;;;;;6201339;28;20010;-77
2022/11/22 07:42:42;;;;;;;29.30;17.63;;;;;;;;;;6199688;28;20073;-76
2022/11/22 07:45:43;;;;;;;31.58;18.77;;;;;;;;;;6200841;28;20073;-76
2022/11/22 07:48:43;;;;;;;31.53;20.90;;;;;;;;;;6201491;28;20014;-76
2022/11/22 07:51:43;;;;;;;29.95;18.17;;;;;;;;;;6201100;28;20021;-75
2022/11/22 07:54:43;;;;;;;31.73;19.98;;;;;;;;;;6200871;28;20053;-74
2022/11/22 07:57:43;;;;;;;31.43;19.73;;;;;;;;;;6200869;28;20386;-74
2022/11/22 08:00:43;;;;;;;32.43;19.77;;;;;;;;;;6198680;28;20022;-73
2022/11/22 08:03:44;;;;;;;33.03;18.60;;;;;;;;;;6198523;28;20083;-75
2022/11/22 08:06:44;;;;;;;32.50;19.03;;;;;;;;;;6181232;28;20030;-73
2022/11/22 08:09:44;;;;;;;30.77;17.90;;;;;;;;;;6180635;28;20516;-73
2022/11/22 08:12:45;;;;;;;35.85;19.10;;;;;;;;;;6199516;28;20026;-73
2022/11/22 08:15:47;;;;;;;37.70;20.40;;;;;;;;;;6199852;28;20946;-73
2022/11/22 08:18:48;;;;;;;38.17;19.60;;;;;;;;;;6198229;28;20034;-72
2022/11/22 08:21:48;;;;;;;35.47;19.65;;;;;;;;;;6197223;28;20026;-72
2022/11/22 08:24:48;;;;;;;29.53;16.53;;;;;;;;;;6197997;28;20029;-72
2022/11/22 08:27:49;;;;;;;28.30;17.33;;;;;;;;;;6198809;28;20041;-72
2022/11/22 08:30:49;;;;;;;26.00;15.93;;;;;;;;;;6197025;28;20064;-72
2022/11/22 08:33:51;;;;;;;28.17;16.10;;;;;;;;;;6197312;28;20045;-73
2022/11/22 08:36:51;;;;;;;24.55;14.18;;;;;;;;;;6196150;28;20101;-72
2022/11/22 08:39:51;;;;;;;27.17;13.93;;;;;;;;;;6196707;28;20478;-72
2022/11/22 08:42:52;;;;;;;28.50;15.53;;;;;;;;;;6196670;28;20077;-72
2022/11/22 08:45:53;;;;;;;26.50;14.33;;;;;;;;;;6195093;28;20144;-73
2022/11/22 08:48:54;;;;;;;24.95;15.63;;;;;;;;;;6190953;28;20041;-73
2022/11/22 08:51:54;;;;;;;29.30;16.47;;;;;;;;;;6179274;28;20061;-72
2022/11/22 08:54:54;;;;;;;27.13;15.77;;;;;;;;;;6196290;28;20070;-72
2022/11/22 08:58:00;;;;;;;28.23;15.90;;;;;;;;;;6195884;28;20478;-73
2022/11/22 09:01:04;;;;;;;24.60;16.23;;;;;;;;;;6197428;28;20097;-72
2022/11/22 09:04:04;;;;;;;26.40;15.52;;;;;;;;;;6193422;28;20429;-72
2022/11/22 09:07:05;;;;;;;24.07;13.97;;;;;;;;;;6195279;28;20069;-72
2022/11/22 09:10:06;;;;;;;21.23;14.80;;;;;;;;;;6194836;28;20027;-72
2022/11/22 09:13:07;;;;;;;23.90;14.45;;;;;;;;;;6195231;28;20045;-72
2022/11/22 09:16:08;;;;;;;22.90;12.50;;;;;;;;;;6196452;28;20032;-72
2022/11/22 09:19:08;;;;;;;21.88;13.68;;;;;;;;;;6196544;28;20402;-73
2022/11/22 09:22:09;;;;;;;24.00;12.43;;;;;;;;;;6196555;28;20022;-72
2022/11/22 09:25:09;;;;;;;22.52;11.02;;;;;;;;;;6196798;28;20371;-72
2022/11/22 09:28:09;;;;;;;15.65;10.15;;;;;;;;;;6195945;28;20145;-72
2022/11/22 09:31:14;;;;;;;19.17;11.50;;;;;;;;;;6196814;28;20010;-72
2022/11/22 09:34:14;;;;;;;18.38;11.02;;;;;;;;;;6179521;28;20025;-72
2022/11/22 09:37:17;;;;;;;17.05;10.07;;;;;;;;;;6196760;28;20014;-73
2022/11/22 09:40:17;;;;;;;16.98;9.85;;;;;;;;;;6179320;28;20152;-72
2022/11/22 09:43:17;;;;;;;17.47;9.67;;;;;;;;;;6196793;28;20023;-72
2022/11/22 09:46:26;;;;;;;18.70;9.35;;;;;;;;;;6196185;28;20022;-72
2022/11/22 09:49:28;;;;;;;20.08;11.25;;;;;;;;;;6195750;28;20022;-72
2022/11/22 09:52:43;;;;;;;21.20;10.15;;;;;;;;;;6196146;28;20018;-72
2022/11/22 09:55:47;;;;;;;18.00;9.48;;;;;;;;;;6190989;28;20017;-72
2022/11/22 09:58:51;;;;;;;13.57;7.43;;;;;;;;;;6196106;28;20077;-72
2022/11/22 10:01:54;;;;;;;13.35;8.15;;;;;;;;;;6196084;28;20027;-72
2022/11/22 10:04:59;;;;;;;13.15;7.18;;;;;;;;;;6194773;28;20023;-71
2022/11/22 10:08:02;;;;;;;14.75;8.45;;;;;;;;;;6191994;28;20560;-71
2022/11/22 10:11:09;;;;;;;16.50;8.85;;;;;;;;;;6194411;28;20035;-72
2022/11/22 10:14:21;;;;;;;13.32;6.82;;;;;;;;;;6195748;28;20018;-72
2022/11/22 10:17:21;;;;;;;;;;;;;;;;;;6195617;28;20077;-72
2022/11/22 10:20:22;;;;;;;11.65;7.05;;;;;;;;;;6195061;28;19906;-72
2022/11/22 10:23:23;;;;;;;11.32;5.60;;;;;;;;;;6195585;28;20030;-72
2022/11/22 10:26:28;;;;;;;10.87;5.87;;;;;;;;;;6194617;28;20076;-72
2022/11/22 10:29:43;;;;;;;8.95;5.72;;;;;;;;;;6194852;28;20025;-72
2022/11/22 10:33:04;;;;;;;10.68;5.75;;;;;;;;;;6193664;28;20034;-72
2022/11/22 10:36:10;;;;;;;9.13;4.10;;;;;;;;;;6193759;28;20023;-72
2022/11/22 10:39:19;;;;;;;8.40;5.38;;;;;;;;;;6199677;28;20033;-72
2022/11/22 10:42:23;;;;;;;8.98;4.75;;;;;;;;;;6200076;28;20049;-72
2022/11/22 10:45:41;;;;;;;7.05;3.70;;;;;;;;;;6197978;28;20015;-72
2022/11/22 10:48:54;;;;;;;8.40;3.58;;;;;;;;;;6195943;28;20033;-72
2022/11/22 10:51:54;;;;;;;4.18;2.50;;;;;;;;;;6198783;28;20033;-72
2022/11/22 10:55:15;;;;;;;7.28;3.53;;;;;;;;;;6199615;28;20026;-72
2022/11/22 10:58:18;;;;;;;5.53;3.00;;;;;;;;;;6199665;28;20034;-72
2022/11/22 11:01:26;;;;;;;7.90;3.80;;;;;;;;;;6198560;28;20020;-73
2022/11/22 11:04:28;;;;;;;8.52;4.60;;;;;;;;;;6199369;28;20022;-72
2022/11/22 11:07:29;;;;;;;9.23;4.00;;;;;;;;;;6198101;28;20509;-72
2022/11/22 11:10:33;;;;;;;8.07;4.17;;;;;;;;;;6198569;28;20030;-72
2022/11/22 11:13:35;;;;;;;5.22;2.95;;;;;;;;;;6198599;28;20022;-72
2022/11/22 11:16:36;;;;;;;5.43;2.85;;;;;;;;;;6198011;28;20382;-73
2022/11/22 11:19:37;;;;;;;5.15;2.55;;;;;;;;;;6181710;28;20034;-72
2022/11/22 11:22:37;;;;;;;6.63;2.97;;;;;;;;;;6198118;28;20068;-72
2022/11/22 11:25:42;;;;;;;6.30;2.53;;;;;;;;;;6199001;28;20022;-72
2022/11/22 11:28:42;;;;;;;5.10;2.60;;;;;;;;;;6198242;28;20030;-72
2022/11/22 11:31:47;;;;;;;5.80;2.40;;;;;;;;;;6193693;28;20014;-72
2022/11/22 11:34:53;;;;;;;7.05;3.83;;;;;;;;;;6197463;28;20033;-72
2022/11/22 11:37:54;;;;;;;4.05;2.30;;;;;;;;;;6193523;28;20161;-72
2022/11/22 11:40:54;;;;;;;5.28;3.08;;;;;;;;;;6196595;28;20073;-72
2022/11/22 11:43:56;;;;;;;4.10;2.43;;;;;;;;;;6180574;28;20026;-72
2022/11/22 11:46:57;;;;;;;6.13;2.88;;;;;;;;;;6197762;28;20026;-72
2022/11/22 11:49:57;;;;;;;4.03;2.20;;;;;;;;;;6198052;28;20034;-73
2022/11/22 11:53:04;;;;;;;5.15;2.17;;;;;;;;;;6196582;28;20109;-72
2022/11/22 11:56:26;;;;;;;6.20;2.67;;;;;;;;;;6197192;28;20018;-73
2022/11/22 11:59:35;;;;;;;11.82;4.43;;;;;;;;;;6196911;28;20438;-72
2022/11/22 12:02:39;;;;;;;7.45;3.72;;;;;;;;;;6178144;28;20057;-72
2022/11/22 12:05:39;;;;;;;17.83;6.72;;;;;;;;;;6195683;28;20458;-72
2022/11/22 12:08:40;;;;;;;14.03;5.63;;;;;;;;;;6196868;28;20042;-72
2022/11/22 12:11:46;;;;;;;14.90;5.27;;;;;;;;;;6197920;28;20021;-72
2022/11/22 12:14:49;;;;;;;28.10;14.55;;;;;;;;;;6180219;28;20030;-72
2022/11/22 12:17:53;;;;;;;6.03;3.50;;;;;;;;;;6198609;28;20061;-72
2022/11/22 12:21:17;;;;;;;4.53;2.53;;;;;;;;;;6194590;28;20439;-73
2022/11/22 12:24:31;;;;;;;6.90;4.50;;;;;;;;;;6189759;28;20438;-73
2022/11/22 12:27:31;;;;;;;5.57;3.50;;;;;;;;;;6197800;28;20033;-73
2022/11/22 12:30:32;;;;;;;10.33;3.13;;;;;;;;;;6198069;28;20819;-72
2022/11/22 12:33:38;;;;;;;8.67;3.93;;;;;;;;;;6198421;28;20438;-72
2022/11/22 12:36:49;;;;;;;17.05;8.43;;;;;;;;;;6196285;28;20022;-73
2022/11/22 12:39:51;;;;;;;39.28;22.42;;;;;;;;;;6195944;28;20046;-72
2022/11/22 12:42:55;;;;;;;8.38;4.38;;;;;;;;;;6195546;28;20113;-72
2022/11/22 12:46:01;;;;;;;6.30;3.70;;;;;;;;;;6196667;28;20027;-72
2022/11/22 12:49:05;;;;;;;9.65;4.57;;;;;;;;;;6196768;28;20061;-72
2022/11/22 12:52:16;;;;;;;6.75;3.70;;;;;;;;;;6179219;28;20430;-72
2022/11/22 12:55:23;;;;;;;8.13;3.83;;;;;;;;;;6195026;28;20018;-72
2022/11/22 12:58:48;;;;;;;10.90;4.65;;;;;;;;;;6192451;28;20025;-72
2022/11/22 13:01:53;;;;;;;10.00;5.75;;;;;;;;;;6196647;28;20030;-72
2022/11/22 13:04:57;;;;;;;12.57;7.05;;;;;;;;;;6196832;28;20014;-72
2022/11/22 13:07:57;;;;;;;8.80;4.43;;;;;;;;;;6195476;28;20077;-72
2022/11/22 13:11:02;;;;;;;6.67;3.33;;;;;;;;;;6194839;28;20029;-72
2022/11/22 13:14:05;;;;;;;7.32;3.30;;;;;;;;;;6195859;28;20057;-73
2022/11/22 13:17:09;;;;;;;10.93;6.13;;;;;;;;;;6177099;28;20019;-72
2022/11/22 13:20:19;;;;;;;8.45;4.68;;;;;;;;;;6195634;28;20022;-72
2022/11/22 13:23:42;;;;;;;8.52;4.00;;;;;;;;;;6196444;28;20022;-74
2022/11/22 13:26:45;;;;;;;7.55;4.43;;;;;;;;;;6150206;28;20385;-73
2022/11/22 13:29:46;;;;;;;9.20;4.70;;;;;;;;;;6193630;28;20026;-72
2022/11/22 13:32:51;;;;;;;8.27;4.63;;;;;;;;;;6195565;28;20033;-72
2022/11/22 13:36:11;;;;;;;10.82;5.28;;;;;;;;;;6194919;28;20018;-73
2022/11/22 13:39:14;;;;;;;11.05;4.50;;;;;;;;;;6194323;28;20034;-73
2022/11/22 13:42:18;;;;;;;7.88;4.72;;;;;;;;;;6193640;28;20033;-73
2022/11/22 13:45:22;;;;;;;9.23;5.90;;;;;;;;;;6193152;28;20030;-73
2022/11/22 13:48:38;;;;;;;10.15;5.68;;;;;;;;;;6193477;28;20029;-73
2022/11/22 13:51:48;;;;;;;17.98;8.57;;;;;;;;;;6176043;28;20076;-72
2022/11/22 13:54:48;;;;;;;23.17;13.27;;;;;;;;;;6190989;28;20024;-72
2022/11/22 13:57:49;;;;;;;24.13;14.50;;;;;;;;;;6193359;28;20015;-73
2022/11/22 14:00:50;;;;;;;27.33;15.00;;;;;;;;;;6193125;28;20809;-73
2022/11/22 14:03:50;;;;;;;24.50;14.10;;;;;;;;;;6191406;28;20030;-72
2022/11/22 14:07:08;;;;;;;28.37;16.03;;;;;;;;;;6197474;28;20054;-72
2022/11/22 14:10:23;;;;;;;23.40;13.85;;;;;;;;;;6195545;28;20041;-73
2022/11/22 14:13:40;;;;;;;28.17;16.15;;;;;;;;;;6197056;28;20015;-72
2022/11/22 14:16:43;;;;;;;28.30;16.02;;;;;;;;;;6197006;28;20072;-73
2022/11/22 14:20:07;;;;;;;31.83;17.02;;;;;;;;;;6198954;28;20156;-73
2022/11/22 14:23:31;;;;;;;30.52;17.85;;;;;;;;;;6202171;28;20026;-73
2022/11/22 14:26:50;;;;;;;33.78;18.67;;;;;;;;;;6193295;28;20018;-73
2022/11/22 14:29:56;;;;;;;33.97;19.00;;;;;;;;;;6198618;28;20622;-73
2022/11/22 14:33:13;;;;;;;33.33;18.55;;;;;;;;;;6198467;28;20050;-72
2022/11/22 14:36:14;;;;;;;33.90;18.00;;;;;;;;;;6198170;28;20097;-72
2022/11/22 14:39:33;;;;;;;31.50;18.60;;;;;;;;;;6193584;28;20015;-72
2022/11/22 14:42:41;;;;;;;37.30;21.35;;;;;;;;;;6198025;28;20423;-72
2022/11/22 14:45:48;;;;;;;34.70;20.67;;;;;;;;;;6197540;28;20033;-72
2022/11/22 14:48:51;;;;;;;39.85;21.90;;;;;;;;;;6180628;28;20018;-73
2022/11/22 14:51:54;;;;;;;38.78;20.77;;;;;;;;;;6180107;28;20038;-73
2022/11/22 14:55:01;;;;;;;39.35;20.83;;;;;;;;;;6197765;28;20030;-74
2022/11/22 14:58:04;;;;;;;40.33;22.60;;;;;;;;;;6197642;28;20022;-74
2022/11/22 15:01:30;;;;;;;40.75;22.48;;;;;;;;;;6195252;28;20048;-73
2022/11/22 15:04:44;;;;;;;46.25;24.73;;;;;;;;;;6194838;28;20029;-73
2022/11/22 15:07:53;;;;;;;46.13;24.58;;;;;;;;;;6192565;28;20504;-73
2022/11/22 15:11:03;;;;;;;46.05;24.65;;;;;;;;;;6192908;28;20157;-73
2022/11/22 15:14:38;;;;;;;46.75;26.00;;;;;;;;;;6197227;28;20030;-73
2022/11/22 15:17:38;;;;;;;53.72;26.65;;;;;;;;;;6192913;28;20007;-74
2022/11/22 15:20:39;;;;;;;47.43;28.67;;;;;;;;;;6195446;28;20553;-73
2022/11/22 15:23:40;;;;;;;48.03;26.63;;;;;;;;;;6196526;28;20026;-74
2022/11/22 15:26:42;;;;;;;49.95;25.90;;;;;;;;;;6193870;28;20030;-74
2022/11/22 15:29:43;;;;;;;50.97;28.83;;;;;;;;;;6196821;28;20072;-74
2022/11/22 15:32:44;;;;;;;51.43;27.63;;;;;;;;;;6196677;28;20479;-73
2022/11/22 15:35:49;;;;;;;51.20;27.08;;;;;;;;;;6195390;28;20477;-73
2022/11/22 15:38:50;;;;;;;46.40;27.20;;;;;;;;;;6192972;28;20824;-72
2022/11/22 15:41:52;;;;;;;46.90;27.27;;;;;;;;;;6194156;28;20046;-74
2022/11/22 15:44:52;;;;;;;55.97;28.55;;;;;;;;;;6178387;28;20026;-73
2022/11/22 15:47:57;;;;;;;50.52;28.50;;;;;;;;;;6195263;28;20105;-73
2022/11/22 15:51:12;;;;;;;52.30;27.45;;;;;;;;;;6195193;28;20022;-73
2022/11/22 15:54:17;;;;;;;56.33;31.23;;;;;;;;;;6195816;28;20042;-72
2022/11/22 15:57:21;;;;;;;55.85;30.45;;;;;;;;;;6196042;28;20509;-72
2022/11/22 16:00:25;;;;;;;55.80;29.80;;;;;;;;;;6191842;28;20050;-72
2022/11/22 16:03:31;;;;;;;55.97;31.10;;;;;;;;;;6196681;28;20423;-72
2022/11/22 16:06:31;;;;;;;53.17;27.40;;;;;;;;;;6196348;28;20038;-72
2022/11/22 16:09:33;;;;;;;53.00;27.00;;;;;;;;;;6196642;28;20038;-72
2022/11/22 16:12:36;;;;;;;58.65;28.85;;;;;;;;;;6195203;28;20033;-72
2022/11/22 16:15:36;;;;;;;53.47;26.75;;;;;;;;;;6195847;28;20018;-73
2022/11/22 16:18:37;;;;;;;53.63;30.57;;;;;;;;;;6194677;28;20516;-73
2022/11/22 16:21:38;;;;;;;47.67;24.87;;;;;;;;;;6196021;28;20482;-73
2022/11/22 16:24:38;;;;;;;47.97;28.50;;;;;;;;;;6177750;28;20022;-73
2022/11/22 16:27:44;;;;;;;49.10;27.33;;;;;;;;;;6194461;28;20403;-72
2022/11/22 16:30:44;;;;;;;46.85;27.50;;;;;;;;;;6195889;28;20692;-72
2022/11/22 16:33:45;;;;;;;56.15;28.63;;;;;;;;;;6196386;28;20023;-73
2022/11/22 16:36:45;;;;;;;52.17;26.47;;;;;;;;;;6195762;28;20097;-73
2022/11/22 16:39:45;;;;;;;45.97;26.55;;;;;;;;;;6195207;28;20395;-73
2022/11/22 16:42:45;;;;;;;52.65;30.23;;;;;;;;;;6175742;28;22323;-72
2022/11/22 16:45:46;;;;;;;51.83;29.05;;;;;;;;;;6194867;28;20117;-72
2022/11/22 16:48:46;;;;;;;53.57;30.20;;;;;;;;;;6195133;28;20041;-73
2022/11/22 16:51:47;;;;;;;54.77;30.20;;;;;;;;;;6194960;28;20091;-73
2022/11/22 16:54:47;;;;;;;56.10;27.40;;;;;;;;;;6193393;28;20022;-73
2022/11/22 16:57:47;;;;;;;51.40;30.58;;;;;;;;;;6195053;28;20261;-73
2022/11/22 17:00:49;;;;;;;49.53;27.80;;;;;;;;;;6193858;28;20053;-73
2022/11/22 17:03:50;;;;;;;51.28;28.63;;;;;;;;;;6195381;28;20089;-72
2022/11/22 17:06:51;;;;;;;51.10;28.00;;;;;;;;;;6194425;28;20498;-72
2022/11/22 17:09:51;;;;;;;51.87;28.70;;;;;;;;;;6195115;28;20030;-72
2022/11/22 17:12:52;;;;;;;49.13;28.23;;;;;;;;;;6194664;28;20022;-73
2022/11/22 17:15:55;;;;;;;56.50;28.83;;;;;;;;;;6194481;28;20082;-73
2022/11/22 17:18:55;;;;;;;47.03;27.73;;;;;;;;;;6192756;28;20038;-72
2022/11/22 17:21:56;;;;;;;52.75;27.70;;;;;;;;;;6176301;28;20042;-72
2022/11/22 17:24:56;;;;;;;49.13;26.48;;;;;;;;;;6194006;28;20050;-73
2022/11/22 17:27:56;;;;;;;44.70;26.13;;;;;;;;;;6193609;28;20022;-72
2022/11/22 17:30:57;;;;;;;48.08;25.00;;;;;;;;;;6193668;28;20049;-73
2022/11/22 17:33:57;;;;;;;43.22;24.13;;;;;;;;;;6194223;28;20276;-72
2022/11/22 17:36:58;;;;;;;46.23;24.37;;;;;;;;;;6175535;28;20044;-73
2022/11/22 17:39:58;;;;;;;42.33;23.57;;;;;;;;;;6193087;28;20029;-74
2022/11/22 17:42:59;;;;;;;45.85;24.48;;;;;;;;;;6194499;28;20121;-73
2022/11/22 17:45:59;;;;;;;54.45;26.70;;;;;;;;;;6192001;28;20445;-73
2022/11/22 17:49:00;;;;;;;51.17;26.53;;;;;;;;;;6193135;28;20018;-73
2022/11/22 17:52:00;;;;;;;47.17;25.70;;;;;;;;;;6193893;28;20121;-73
2022/11/22 17:55:00;;;;;;;49.00;26.00;;;;;;;;;;6193678;28;20018;-73
2022/11/22 17:58:00;;;;;;;45.87;24.43;;;;;;;;;;6192848;28;20386;-73
2022/11/22 18:01:08;;;;;;;46.53;25.03;;;;;;;;;;6191804;28;20077;-73